Terminal Aerodrome Forecast
Issued by NWS

Home | Current Version | Previous Version | Text Only | Print | Product List | Glossary On
Versions: 1 2 3 4 5 6 7 8 9 10 11 12 13
000
FTUS45 KRIW 280500
TAFRKS
TAF
KRKS 280525Z 2806/2906 26011KT P6SM VCSH SCT060 BKN090
     FM280900 24006KT P6SM VCFG SCT012 SCT080
      TEMPO 2810/2814 4SM BR BKN010
     FM281600 27008KT P6SM FEW015 SCT080
     FM281900 29013G21KT P6SM FEW080
     FM290200 25008KT P6SM FEW090=

USA.gov is the U.S. government's official web portal to all federal, state and local government web resources and services.